sensor_id;sensor_type;location;lat;lon;timestamp;temperature;humidity
63899;HTU21D;50070;-32.946;-60.652;2023-10-08T00:00:05;23.64;37.99
63899;HTU21D;50070;-32.946;-60.652;2023-10-08T00:02:51;23.54;37.97
63899;HTU21D;50070;-32.946;-60.652;2023-10-08T00:05:18;23.69;37.70
63899;HTU21D;50070;-32.946;-60.652;2023-10-08T00:07:45;23.68;37.96
63899;HTU21D;50070;-32.946;-60.652;2023-10-08T00:10:12;23.49;38.67
63899;HTU21D;50070;-32.946;-60.652;2023-10-08T00:12:39;23.51;38.65
63899;HTU21D;50070;-32.946;-60.652;2023-10-08T00:15:06;23.50;39.22
63899;HTU21D;50070;-32.946;-60.652;2023-10-08T00:17:35;23.41;39.29
63899;HTU21D;50070;-32.946;-60.652;2023-10-08T00:20:01;23.52;39.00
63899;HTU21D;50070;-32.946;-60.652;2023-10-08T00:22:29;23.41;39.42
63899;HTU21D;50070;-32.946;-60.652;2023-10-08T00:25:02;23.32;39.27
63899;HTU21D;50070;-32.946;-60.652;2023-10-08T00:27:37;23.18;40.36
63899;HTU21D;50070;-32.946;-60.652;2023-10-08T00:30:05;23.32;39.12
63899;HTU21D;50070;-32.946;-60.652;2023-10-08T00:32:43;23.34;39.30
63899;HTU21D;50070;-32.946;-60.652;2023-10-08T00:35:10;23.25;39.11
63899;HTU21D;50070;-32.946;-60.652;2023-10-08T00:37:40;23.29;38.63
63899;HTU21D;50070;-32.946;-60.652;2023-10-08T00:40:07;23.20;38.84
63899;HTU21D;50070;-32.946;-60.652;2023-10-08T00:42:39;23.31;38.11
63899;HTU21D;50070;-32.946;-60.652;2023-10-08T00:45:12;23.39;38.21
63899;HTU21D;50070;-32.946;-60.652;2023-10-08T00:47:42;23.31;38.39
63899;HTU21D;50070;-32.946;-60.652;2023-10-08T00:50:10;23.18;38.41
63899;HTU21D;50070;-32.946;-60.652;2023-10-08T00:52:49;23.36;37.14
63899;HTU21D;50070;-32.946;-60.652;2023-10-08T00:55:35;23.59;36.17
63899;HTU21D;50070;-32.946;-60.652;2023-10-08T00:58:02;23.59;36.09
63899;HTU21D;50070;-32.946;-60.652;2023-10-08T01:00:35;23.81;35.10
63899;HTU21D;50070;-32.946;-60.652;2023-10-08T01:03:07;23.40;35.55
63899;HTU21D;50070;-32.946;-60.652;2023-10-08T01:05:41;23.38;35.03
63899;HTU21D;50070;-32.946;-60.652;2023-10-08T01:08:11;23.44;34.53
63899;HTU21D;50070;-32.946;-60.652;2023-10-08T01:10:39;23.37;34.41
63899;HTU21D;50070;-32.946;-60.652;2023-10-08T01:13:13;23.39;34.68
63899;HTU21D;50070;-32.946;-60.652;2023-10-08T01:15:47;23.35;35.00
63899;HTU21D;50070;-32.946;-60.652;2023-10-08T01:18:17;23.31;34.82
63899;HTU21D;50070;-32.946;-60.652;2023-10-08T01:20:51;23.34;34.41
63899;HTU21D;50070;-32.946;-60.652;2023-10-08T01:23:19;23.29;34.63
63899;HTU21D;50070;-32.946;-60.652;2023-10-08T01:25:54;23.25;34.95
63899;HTU21D;50070;-32.946;-60.652;2023-10-08T01:28:37;23.23;35.28
63899;HTU21D;50070;-32.946;-60.652;2023-10-08T01:31:04;23.20;34.93
63899;HTU21D;50070;-32.946;-60.652;2023-10-08T01:33:31;23.27;34.64
63899;HTU21D;50070;-32.946;-60.652;2023-10-08T01:35:58;23.38;34.54
63899;HTU21D;50070;-32.946;-60.652;2023-10-08T01:38:33;23.26;34.47
63899;HTU21D;50070;-32.946;-60.652;2023-10-08T01:40:59;23.17;35.15
63899;HTU21D;50070;-32.946;-60.652;2023-10-08T01:43:48;23.17;34.86
63899;HTU21D;50070;-32.946;-60.652;2023-10-08T01:46:18;23.24;34.69
63899;HTU21D;50070;-32.946;-60.652;2023-10-08T01:48:48;23.14;34.66
63899;HTU21D;50070;-32.946;-60.652;2023-10-08T01:51:19;23.13;34.74
63899;HTU21D;50070;-32.946;-60.652;2023-10-08T01:53:54;23.12;34.66
63899;HTU21D;50070;-32.946;-60.652;2023-10-08T01:56:24;22.98;35.20
63899;HTU21D;50070;-32.946;-60.652;2023-10-08T01:58:51;23.15;34.93
63899;HTU21D;50070;-32.946;-60.652;2023-10-08T02:01:21;23.06;34.76
63899;HTU21D;50070;-32.946;-60.652;2023-10-08T02:03:47;23.07;34.06
63899;HTU21D;50070;-32.946;-60.652;2023-10-08T02:06:14;23.08;34.12
63899;HTU21D;50070;-32.946;-60.652;2023-10-08T02:08:41;23.08;33.84
63899;HTU21D;50070;-32.946;-60.652;2023-10-08T02:11:08;22.91;33.90
63899;HTU21D;50070;-32.946;-60.652;2023-10-08T02:13:36;22.95;33.95
63899;HTU21D;50070;-32.946;-60.652;2023-10-08T02:16:03;22.85;33.77
63899;HTU21D;50070;-32.946;-60.652;2023-10-08T02:18:29;22.88;33.99
63899;HTU21D;50070;-32.946;-60.652;2023-10-08T02:20:56;23.06;33.40
63899;HTU21D;50070;-32.946;-60.652;2023-10-08T02:23:24;22.99;33.47
63899;HTU21D;50070;-32.946;-60.652;2023-10-08T02:25:51;22.96;33.00
63899;HTU21D;50070;-32.946;-60.652;2023-10-08T02:28:18;22.95;32.99
63899;HTU21D;50070;-32.946;-60.652;2023-10-08T02:30:46;22.91;33.25
63899;HTU21D;50070;-32.946;-60.652;2023-10-08T02:33:13;22.90;33.34
63899;HTU21D;50070;-32.946;-60.652;2023-10-08T02:35:41;22.87;32.95
63899;HTU21D;50070;-32.946;-60.652;2023-10-08T02:38:13;22.84;32.78
63899;HTU21D;50070;-32.946;-60.652;2023-10-08T02:40:42;22.77;33.23
63899;HTU21D;50070;-32.946;-60.652;2023-10-08T02:43:17;23.07;32.95
63899;HTU21D;50070;-32.946;-60.652;2023-10-08T02:45:44;23.03;32.63
63899;HTU21D;50070;-32.946;-60.652;2023-10-08T02:48:15;22.76;33.08
63899;HTU21D;50070;-32.946;-60.652;2023-10-08T02:50:44;22.63;33.38
63899;HTU21D;50070;-32.946;-60.652;2023-10-08T02:53:11;22.64;33.27
63899;HTU21D;50070;-32.946;-60.652;2023-10-08T02:55:39;22.86;32.66
63899;HTU21D;50070;-32.946;-60.652;2023-10-08T02:58:10;22.72;33.02
63899;HTU21D;50070;-32.946;-60.652;2023-10-08T03:00:44;22.67;32.54
63899;HTU21D;50070;-32.946;-60.652;2023-10-08T03:03:16;22.68;32.49
63899;HTU21D;50070;-32.946;-60.652;2023-10-08T03:05:48;22.65;32.36
63899;HTU21D;50070;-32.946;-60.652;2023-10-08T03:08:17;22.69;31.70
63899;HTU21D;50070;-32.946;-60.652;2023-10-08T03:10:51;22.90;31.16
63899;HTU21D;50070;-32.946;-60.652;2023-10-08T03:13:29;22.86;31.08
63899;HTU21D;50070;-32.946;-60.652;2023-10-08T03:15:56;22.72;31.58
63899;HTU21D;50070;-32.946;-60.652;2023-10-08T03:18:30;22.67;31.70
63899;HTU21D;50070;-32.946;-60.652;2023-10-08T03:21:17;22.53;32.12
63899;HTU21D;50070;-32.946;-60.652;2023-10-08T03:23:49;22.41;32.29
63899;HTU21D;50070;-32.946;-60.652;2023-10-08T03:26:23;22.32;32.65
63899;HTU21D;50070;-32.946;-60.652;2023-10-08T03:29:05;22.39;32.30
63899;HTU21D;50070;-32.946;-60.652;2023-10-08T03:31:41;22.36;32.41
63899;HTU21D;50070;-32.946;-60.652;2023-10-08T03:34:18;22.28;32.05
63899;HTU21D;50070;-32.946;-60.652;2023-10-08T03:36:46;22.47;32.12
63899;HTU21D;50070;-32.946;-60.652;2023-10-08T03:39:16;22.61;31.86
63899;HTU21D;50070;-32.946;-60.652;2023-10-08T03:41:47;22.66;31.60
63899;HTU21D;50070;-32.946;-60.652;2023-10-08T03:44:32;22.54;32.11
63899;HTU21D;50070;-32.946;-60.652;2023-10-08T03:47:03;22.43;33.49
63899;HTU21D;50070;-32.946;-60.652;2023-10-08T03:49:36;22.40;34.91
63899;HTU21D;50070;-32.946;-60.652;2023-10-08T03:52:11;22.22;37.03
63899;HTU21D;50070;-32.946;-60.652;2023-10-08T03:54:39;21.48;41.74
63899;HTU21D;50070;-32.946;-60.652;2023-10-08T03:57:14;21.64;42.53
63899;HTU21D;50070;-32.946;-60.652;2023-10-08T03:59:51;21.59;44.15
63899;HTU21D;50070;-32.946;-60.652;2023-10-08T04:02:24;21.87;44.48
63899;HTU21D;50070;-32.946;-60.652;2023-10-08T04:05:07;21.80;45.21
63899;HTU21D;50070;-32.946;-60.652;2023-10-08T04:07:46;21.43;46.34
63899;HTU21D;50070;-32.946;-60.652;2023-10-08T04:10:41;21.50;46.24
63899;HTU21D;50070;-32.946;-60.652;2023-10-08T04:13:08;21.15;46.99
63899;HTU21D;50070;-32.946;-60.652;2023-10-08T04:15:38;21.51;45.45
63899;HTU21D;50070;-32.946;-60.652;2023-10-08T04:18:09;21.68;44.68
63899;HTU21D;50070;-32.946;-60.652;2023-10-08T04:20:37;21.57;44.75
63899;HTU21D;50070;-32.946;-60.652;2023-10-08T04:23:05;21.45;45.07
63899;HTU21D;50070;-32.946;-60.652;2023-10-08T04:25:39;21.53;44.52
63899;HTU21D;50070;-32.946;-60.652;2023-10-08T04:28:08;21.45;44.06
63899;HTU21D;50070;-32.946;-60.652;2023-10-08T04:30:40;21.31;43.01
63899;HTU21D;50070;-32.946;-60.652;2023-10-08T04:33:08;21.37;41.42
63899;HTU21D;50070;-32.946;-60.652;2023-10-08T04:35:40;21.31;41.00
63899;HTU21D;50070;-32.946;-60.652;2023-10-08T04:38:23;21.53;40.78
63899;HTU21D;50070;-32.946;-60.652;2023-10-08T04:40:55;21.24;41.12
63899;HTU21D;50070;-32.946;-60.652;2023-10-08T04:43:27;21.44;40.65
63899;HTU21D;50070;-32.946;-60.652;2023-10-08T04:45:57;21.20;40.71
63899;HTU21D;50070;-32.946;-60.652;2023-10-08T04:48:25;21.00;41.21
63899;HTU21D;50070;-32.946;-60.652;2023-10-08T04:50:55;21.05;41.42
63899;HTU21D;50070;-32.946;-60.652;2023-10-08T04:53:33;20.87;41.29
63899;HTU21D;50070;-32.946;-60.652;2023-10-08T04:56:05;20.81;42.13
63899;HTU21D;50070;-32.946;-60.652;2023-10-08T04:58:33;20.81;41.78
63899;HTU21D;50070;-32.946;-60.652;2023-10-08T05:01:03;20.98;41.87
63899;HTU21D;50070;-32.946;-60.652;2023-10-08T05:03:50;21.02;40.89
63899;HTU21D;50070;-32.946;-60.652;2023-10-08T05:06:27;20.98;40.84
63899;HTU21D;50070;-32.946;-60.652;2023-10-08T05:09:04;20.88;41.10
63899;HTU21D;50070;-32.946;-60.652;2023-10-08T05:11:52;20.84;41.21
63899;HTU21D;50070;-32.946;-60.652;2023-10-08T05:14:37;20.86;41.22
63899;HTU21D;50070;-32.946;-60.652;2023-10-08T05:17:21;20.94;40.62
63899;HTU21D;50070;-32.946;-60.652;2023-10-08T05:19:49;21.00;40.01
63899;HTU21D;50070;-32.946;-60.652;2023-10-08T05:22:17;21.19;39.44
63899;HTU21D;50070;-32.946;-60.652;2023-10-08T05:24:48;21.01;38.75
63899;HTU21D;50070;-32.946;-60.652;2023-10-08T05:27:37;20.98;37.99
63899;HTU21D;50070;-32.946;-60.652;2023-10-08T05:30:12;20.80;38.18
63899;HTU21D;50070;-32.946;-60.652;2023-10-08T05:32:43;20.86;36.59
63899;HTU21D;50070;-32.946;-60.652;2023-10-08T05:35:28;20.84;35.73
63899;HTU21D;50070;-32.946;-60.652;2023-10-08T05:38:18;20.98;35.53
63899;HTU21D;50070;-32.946;-60.652;2023-10-08T05:41:00;20.89;35.58
63899;HTU21D;50070;-32.946;-60.652;2023-10-08T05:43:34;20.80;35.61
63899;HTU21D;50070;-32.946;-60.652;2023-10-08T05:46:12;20.74;35.41
63899;HTU21D;50070;-32.946;-60.652;2023-10-08T05:48:59;20.72;35.46
63899;HTU21D;50070;-32.946;-60.652;2023-10-08T05:51:43;20.70;35.61
63899;HTU21D;50070;-32.946;-60.652;2023-10-08T05:54:21;20.59;35.69
63899;HTU21D;50070;-32.946;-60.652;2023-10-08T05:57:09;20.59;36.21
63899;HTU21D;50070;-32.946;-60.652;2023-10-08T06:02:24;20.39;37.17
63899;HTU21D;50070;-32.946;-60.652;2023-10-08T06:05:09;20.61;36.92
63899;HTU21D;50070;-32.946;-60.652;2023-10-08T06:07:54;20.40;37.65
63899;HTU21D;50070;-32.946;-60.652;2023-10-08T06:10:21;20.58;37.55
63899;HTU21D;50070;-32.946;-60.652;2023-10-08T06:13:09;20.49;37.81
63899;HTU21D;50070;-32.946;-60.652;2023-10-08T06:15:47;20.37;38.04
63899;HTU21D;50070;-32.946;-60.652;2023-10-08T06:18:16;20.21;38.95
63899;HTU21D;50070;-32.946;-60.652;2023-10-08T06:20:44;20.02;39.39
63899;HTU21D;50070;-32.946;-60.652;2023-10-08T06:23:13;19.96;39.78
63899;HTU21D;50070;-32.946;-60.652;2023-10-08T06:25:42;19.95;40.03
63899;HTU21D;50070;-32.946;-60.652;2023-10-08T06:28:12;20.01;40.31
63899;HTU21D;50070;-32.946;-60.652;2023-10-08T06:30:40;19.96;40.52
63899;HTU21D;50070;-32.946;-60.652;2023-10-08T06:33:08;20.31;39.90
63899;HTU21D;50070;-32.946;-60.652;2023-10-08T06:35:35;20.28;40.28
63899;HTU21D;50070;-32.946;-60.652;2023-10-08T06:38:03;20.13;41.02
63899;HTU21D;50070;-32.946;-60.652;2023-10-08T06:40:38;19.82;41.69
63899;HTU21D;50070;-32.946;-60.652;2023-10-08T06:43:05;19.86;41.73
63899;HTU21D;50070;-32.946;-60.652;2023-10-08T06:45:41;19.86;41.78
63899;HTU21D;50070;-32.946;-60.652;2023-10-08T06:48:09;19.79;41.74
63899;HTU21D;50070;-32.946;-60.652;2023-10-08T06:50:48;19.71;41.81
63899;HTU21D;50070;-32.946;-60.652;2023-10-08T06:53:15;19.67;41.84
63899;HTU21D;50070;-32.946;-60.652;2023-10-08T06:55:47;19.82;41.29
63899;HTU21D;50070;-32.946;-60.652;2023-10-08T06:58:15;19.74;41.41
63899;HTU21D;50070;-32.946;-60.652;2023-10-08T07:00:43;19.59;41.52
63899;HTU21D;50070;-32.946;-60.652;2023-10-08T07:03:14;19.65;41.46
63899;HTU21D;50070;-32.946;-60.652;2023-10-08T07:05:47;19.66;41.21
63899;HTU21D;50070;-32.946;-60.652;2023-10-08T07:08:25;19.75;40.91
63899;HTU21D;50070;-32.946;-60.652;2023-10-08T07:10:53;19.65;40.99
63899;HTU21D;50070;-32.946;-60.652;2023-10-08T07:13:22;19.69;40.63
63899;HTU21D;50070;-32.946;-60.652;2023-10-08T07:15:51;19.89;39.43
63899;HTU21D;50070;-32.946;-60.652;2023-10-08T07:18:19;19.72;39.89
63899;HTU21D;50070;-32.946;-60.652;2023-10-08T07:21:00;19.85;39.57
63899;HTU21D;50070;-32.946;-60.652;2023-10-08T07:23:28;19.80;38.96
63899;HTU21D;50070;-32.946;-60.652;2023-10-08T07:26:02;19.85;38.62
63899;HTU21D;50070;-32.946;-60.652;2023-10-08T07:28:38;19.85;38.70
63899;HTU21D;50070;-32.946;-60.652;2023-10-08T07:31:23;19.85;38.72
63899;HTU21D;50070;-32.946;-60.652;2023-10-08T07:33:56;19.73;38.60
63899;HTU21D;50070;-32.946;-60.652;2023-10-08T07:36:42;19.94;38.08
63899;HTU21D;50070;-32.946;-60.652;2023-10-08T07:39:10;20.09;37.44
63899;HTU21D;50070;-32.946;-60.652;2023-10-08T07:41:52;19.84;38.06
63899;HTU21D;50070;-32.946;-60.652;2023-10-08T07:44:23;19.77;37.24
63899;HTU21D;50070;-32.946;-60.652;2023-10-08T07:46:51;19.80;37.00
63899;HTU21D;50070;-32.946;-60.652;2023-10-08T07:49:18;19.83;36.35
63899;HTU21D;50070;-32.946;-60.652;2023-10-08T07:51:45;19.51;37.23
63899;HTU21D;50070;-32.946;-60.652;2023-10-08T07:54:25;19.32;37.64
63899;HTU21D;50070;-32.946;-60.652;2023-10-08T07:56:55;19.33;37.82
63899;HTU21D;50070;-32.946;-60.652;2023-10-08T07:59:45;19.40;37.97
63899;HTU21D;50070;-32.946;-60.652;2023-10-08T08:02:16;19.30;37.66
63899;HTU21D;50070;-32.946;-60.652;2023-10-08T08:04:44;19.13;38.39
63899;HTU21D;50070;-32.946;-60.652;2023-10-08T08:07:16;19.28;38.05
63899;HTU21D;50070;-32.946;-60.652;2023-10-08T08:09:44;19.39;38.23
63899;HTU21D;50070;-32.946;-60.652;2023-10-08T08:12:21;19.26;38.18
63899;HTU21D;50070;-32.946;-60.652;2023-10-08T08:14:48;19.26;37.84
63899;HTU21D;50070;-32.946;-60.652;2023-10-08T08:17:15;19.18;38.19
63899;HTU21D;50070;-32.946;-60.652;2023-10-08T08:19:47;19.21;38.08
63899;HTU21D;50070;-32.946;-60.652;2023-10-08T08:22:15;19.17;37.90
63899;HTU21D;50070;-32.946;-60.652;2023-10-08T08:24:48;19.31;37.56
63899;HTU21D;50070;-32.946;-60.652;2023-10-08T08:27:19;19.20;37.73
63899;HTU21D;50070;-32.946;-60.652;2023-10-08T08:29:58;19.06;37.53
63899;HTU21D;50070;-32.946;-60.652;2023-10-08T08:32:39;18.95;38.09
63899;HTU21D;50070;-32.946;-60.652;2023-10-08T08:35:10;18.96;37.73
63899;HTU21D;50070;-32.946;-60.652;2023-10-08T08:37:37;19.06;37.21
63899;HTU21D;50070;-32.946;-60.652;2023-10-08T08:40:06;18.80;37.99
63899;HTU21D;50070;-32.946;-60.652;2023-10-08T08:42:59;18.72;39.07
63899;HTU21D;50070;-32.946;-60.652;2023-10-08T08:45:31;18.96;38.93
63899;HTU21D;50070;-32.946;-60.652;2023-10-08T08:48:00;19.13;39.07
63899;HTU21D;50070;-32.946;-60.652;2023-10-08T08:50:28;19.16;39.33
63899;HTU21D;50070;-32.946;-60.652;2023-10-08T08:52:55;19.01;39.90
63899;HTU21D;50070;-32.946;-60.652;2023-10-08T08:55:21;18.66;41.58
63899;HTU21D;50070;-32.946;-60.652;2023-10-08T08:57:50;18.48;41.49
63899;HTU21D;50070;-32.946;-60.652;2023-10-08T09:00:20;18.67;41.28
63899;HTU21D;50070;-32.946;-60.652;2023-10-08T09:02:48;18.61;41.90
63899;HTU21D;50070;-32.946;-60.652;2023-10-08T09:05:15;18.53;41.11
63899;HTU21D;50070;-32.946;-60.652;2023-10-08T09:07:56;18.51;41.14
63899;HTU21D;50070;-32.946;-60.652;2023-10-08T09:10:25;18.69;40.91
63899;HTU21D;50070;-32.946;-60.652;2023-10-08T09:12:56;18.80;40.50
63899;HTU21D;50070;-32.946;-60.652;2023-10-08T09:15:26;18.82;40.46
63899;HTU21D;50070;-32.946;-60.652;2023-10-08T09:17:56;18.69;41.12
63899;HTU21D;50070;-32.946;-60.652;2023-10-08T09:20:27;18.38;42.01
63899;HTU21D;50070;-32.946;-60.652;2023-10-08T09:23:08;18.35;42.42
63899;HTU21D;50070;-32.946;-60.652;2023-10-08T09:25:38;18.49;42.44
63899;HTU21D;50070;-32.946;-60.652;2023-10-08T09:28:07;18.42;42.45
63899;HTU21D;50070;-32.946;-60.652;2023-10-08T09:30:36;18.46;42.56
63899;HTU21D;50070;-32.946;-60.652;2023-10-08T09:33:10;18.51;42.68
63899;HTU21D;50070;-32.946;-60.652;2023-10-08T09:35:38;18.48;42.74
63899;HTU21D;50070;-32.946;-60.652;2023-10-08T09:38:07;18.38;43.54
63899;HTU21D;50070;-32.946;-60.652;2023-10-08T09:40:38;18.37;44.00
63899;HTU21D;50070;-32.946;-60.652;2023-10-08T09:43:10;18.20;44.32
63899;HTU21D;50070;-32.946;-60.652;2023-10-08T09:45:39;18.17;44.22
63899;HTU21D;50070;-32.946;-60.652;2023-10-08T09:48:11;18.06;44.35
63899;HTU21D;50070;-32.946;-60.652;2023-10-08T09:50:41;18.21;44.29
63899;HTU21D;50070;-32.946;-60.652;2023-10-08T09:53:12;18.02;44.62
63899;HTU21D;50070;-32.946;-60.652;2023-10-08T09:55:55;18.14;44.58
63899;HTU21D;50070;-32.946;-60.652;2023-10-08T09:58:24;17.82;45.22
63899;HTU21D;50070;-32.946;-60.652;2023-10-08T10:00:53;17.79;45.50
63899;HTU21D;50070;-32.946;-60.652;2023-10-08T10:03:22;17.77;45.36
63899;HTU21D;50070;-32.946;-60.652;2023-10-08T10:05:51;17.89;44.63
63899;HTU21D;50070;-32.946;-60.652;2023-10-08T10:08:21;17.94;44.60
63899;HTU21D;50070;-32.946;-60.652;2023-10-08T10:10:58;18.11;43.63
63899;HTU21D;50070;-32.946;-60.652;2023-10-08T10:13:29;18.12;43.98
63899;HTU21D;50070;-32.946;-60.652;2023-10-08T10:16:00;17.94;43.35
63899;HTU21D;50070;-32.946;-60.652;2023-10-08T10:18:27;17.79;44.32
63899;HTU21D;50070;-32.946;-60.652;2023-10-08T10:20:59;17.54;45.83
63899;HTU21D;50070;-32.946;-60.652;2023-10-08T10:23:40;17.25;46.60
63899;HTU21D;50070;-32.946;-60.652;2023-10-08T10:26:31;17.35;47.29
63899;HTU21D;50070;-32.946;-60.652;2023-10-08T10:29:21;17.34;47.26
63899;HTU21D;50070;-32.946;-60.652;2023-10-08T10:31:51;17.40;47.71
63899;HTU21D;50070;-32.946;-60.652;2023-10-08T10:34:24;17.28;48.01
63899;HTU21D;50070;-32.946;-60.652;2023-10-08T10:36:58;16.89;49.65
63899;HTU21D;50070;-32.946;-60.652;2023-10-08T10:39:29;16.85;51.86
63899;HTU21D;50070;-32.946;-60.652;2023-10-08T10:42:01;16.77;52.25
63899;HTU21D;50070;-32.946;-60.652;2023-10-08T10:44:33;16.66;51.72
63899;HTU21D;50070;-32.946;-60.652;2023-10-08T10:47:04;16.90;49.28
63899;HTU21D;50070;-32.946;-60.652;2023-10-08T10:49:44;17.08;48.95
63899;HTU21D;50070;-32.946;-60.652;2023-10-08T10:52:24;17.13;48.00
63899;HTU21D;50070;-32.946;-60.652;2023-10-08T10:55:15;16.88;48.38
63899;HTU21D;50070;-32.946;-60.652;2023-10-08T11:00:23;16.72;49.19
63899;HTU21D;50070;-32.946;-60.652;2023-10-08T11:03:01;16.85;49.11
63899;HTU21D;50070;-32.946;-60.652;2023-10-08T11:05:53;16.95;49.44
63899;HTU21D;50070;-32.946;-60.652;2023-10-08T11:08:21;16.76;50.64
63899;HTU21D;50070;-32.946;-60.652;2023-10-08T11:10:52;17.21;49.55
63899;HTU21D;50070;-32.946;-60.652;2023-10-08T11:13:25;17.50;48.12
63899;HTU21D;50070;-32.946;-60.652;2023-10-08T11:16:05;17.75;47.80
63899;HTU21D;50070;-32.946;-60.652;2023-10-08T11:18:33;17.67;48.27
63899;HTU21D;50070;-32.946;-60.652;2023-10-08T11:21:08;17.80;47.49
63899;HTU21D;50070;-32.946;-60.652;2023-10-08T11:23:51;17.90;46.80
63899;HTU21D;50070;-32.946;-60.652;2023-10-08T11:26:20;18.33;46.22
63899;HTU21D;50070;-32.946;-60.652;2023-10-08T11:28:59;18.76;45.32
63899;HTU21D;50070;-32.946;-60.652;2023-10-08T11:31:31;18.72;45.42
63899;HTU21D;50070;-32.946;-60.652;2023-10-08T11:34:03;19.02;44.83
63899;HTU21D;50070;-32.946;-60.652;2023-10-08T11:36:39;19.03;44.97
63899;HTU21D;50070;-32.946;-60.652;2023-10-08T11:39:15;18.92;45.64
63899;HTU21D;50070;-32.946;-60.652;2023-10-08T11:42:01;19.36;45.13
63899;HTU21D;50070;-32.946;-60.652;2023-10-08T11:44:47;19.42;45.46
63899;HTU21D;50070;-32.946;-60.652;2023-10-08T11:47:18;18.89;47.42
63899;HTU21D;50070;-32.946;-60.652;2023-10-08T11:49:47;19.02;47.57
63899;HTU21D;50070;-32.946;-60.652;2023-10-08T11:52:26;19.23;47.57
63899;HTU21D;50070;-32.946;-60.652;2023-10-08T11:54:54;19.17;47.93
63899;HTU21D;50070;-32.946;-60.652;2023-10-08T11:57:21;19.15;48.12
63899;HTU21D;50070;-32.946;-60.652;2023-10-08T11:59:48;19.15;48.47
63899;HTU21D;50070;-32.946;-60.652;2023-10-08T12:02:15;19.67;46.91
63899;HTU21D;50070;-32.946;-60.652;2023-10-08T12:04:43;19.80;46.72
63899;HTU21D;50070;-32.946;-60.652;2023-10-08T12:07:13;19.99;46.83
63899;HTU21D;50070;-32.946;-60.652;2023-10-08T12:09:44;20.04;46.85
63899;HTU21D;50070;-32.946;-60.652;2023-10-08T12:12:14;19.96;47.29
63899;HTU21D;50070;-32.946;-60.652;2023-10-08T12:14:41;20.37;46.36
63899;HTU21D;50070;-32.946;-60.652;2023-10-08T12:17:11;19.98;46.23
63899;HTU21D;50070;-32.946;-60.652;2023-10-08T12:19:38;19.68;47.63
63899;HTU21D;50070;-32.946;-60.652;2023-10-08T12:22:09;19.83;47.77
63899;HTU21D;50070;-32.946;-60.652;2023-10-08T12:24:38;20.05;47.60
63899;HTU21D;50070;-32.946;-60.652;2023-10-08T12:27:05;20.27;46.51
63899;HTU21D;50070;-32.946;-60.652;2023-10-08T12:29:31;20.19;45.58
63899;HTU21D;50070;-32.946;-60.652;2023-10-08T12:31:59;20.30;45.02
63899;HTU21D;50070;-32.946;-60.652;2023-10-08T12:34:26;20.45;44.16
63899;HTU21D;50070;-32.946;-60.652;2023-10-08T12:36:55;20.39;44.78
63899;HTU21D;50070;-32.946;-60.652;2023-10-08T12:39:22;20.74;44.03
63899;HTU21D;50070;-32.946;-60.652;2023-10-08T12:41:54;20.98;43.25
63899;HTU21D;50070;-32.946;-60.652;2023-10-08T12:44:23;21.42;42.53
63899;HTU21D;50070;-32.946;-60.652;2023-10-08T12:46:50;21.61;42.72
63899;HTU21D;50070;-32.946;-60.652;2023-10-08T12:49:17;22.07;41.90
63899;HTU21D;50070;-32.946;-60.652;2023-10-08T12:51:47;22.49;41.67
63899;HTU21D;50070;-32.946;-60.652;2023-10-08T12:54:13;23.12;40.10
63899;HTU21D;50070;-32.946;-60.652;2023-10-08T12:56:47;23.10;39.89
63899;HTU21D;50070;-32.946;-60.652;2023-10-08T12:59:15;23.62;38.85
63899;HTU21D;50070;-32.946;-60.652;2023-10-08T13:01:50;23.86;38.32
63899;HTU21D;50070;-32.946;-60.652;2023-10-08T13:04:21;23.90;37.65
63899;HTU21D;50070;-32.946;-60.652;2023-10-08T13:06:54;25.58;33.54
63899;HTU21D;50070;-32.946;-60.652;2023-10-08T13:09:24;26.11;32.35
63899;HTU21D;50070;-32.946;-60.652;2023-10-08T13:11:51;26.23;32.11
63899;HTU21D;50070;-32.946;-60.652;2023-10-08T13:14:18;25.50;33.65
63899;HTU21D;50070;-32.946;-60.652;2023-10-08T13:16:45;25.57;33.72
63899;HTU21D;50070;-32.946;-60.652;2023-10-08T13:19:11;26.43;32.33
63899;HTU21D;50070;-32.946;-60.652;2023-10-08T13:21:38;25.33;34.39
63899;HTU21D;50070;-32.946;-60.652;2023-10-08T13:24:05;26.34;32.99
63899;HTU21D;50070;-32.946;-60.652;2023-10-08T13:26:36;26.33;33.09
63899;HTU21D;50070;-32.946;-60.652;2023-10-08T13:29:03;25.84;34.29
63899;HTU21D;50070;-32.946;-60.652;2023-10-08T13:31:32;25.42;35.41
63899;HTU21D;50070;-32.946;-60.652;2023-10-08T13:34:02;26.56;33.16
63899;HTU21D;50070;-32.946;-60.652;2023-10-08T13:36:35;26.08;33.67
63899;HTU21D;50070;-32.946;-60.652;2023-10-08T13:39:06;26.10;33.55
63899;HTU21D;50070;-32.946;-60.652;2023-10-08T13:41:36;25.98;33.02
63899;HTU21D;50070;-32.946;-60.652;2023-10-08T13:44:04;27.26;31.41
63899;HTU21D;50070;-32.946;-60.652;2023-10-08T13:46:34;27.24;31.31
63899;HTU21D;50070;-32.946;-60.652;2023-10-08T13:49:02;26.95;31.94
63899;HTU21D;50070;-32.946;-60.652;2023-10-08T13:51:29;26.77;32.50
63899;HTU21D;50070;-32.946;-60.652;2023-10-08T13:53:56;26.90;31.54
63899;HTU21D;50070;-32.946;-60.652;2023-10-08T13:56:27;27.59;30.33
63899;HTU21D;50070;-32.946;-60.652;2023-10-08T13:58:58;28.09;28.83
63899;HTU21D;50070;-32.946;-60.652;2023-10-08T14:01:39;26.98;30.06
63899;HTU21D;50070;-32.946;-60.652;2023-10-08T14:04:12;27.40;28.77
63899;HTU21D;50070;-32.946;-60.652;2023-10-08T14:06:43;28.04;27.97
63899;HTU21D;50070;-32.946;-60.652;2023-10-08T14:09:18;27.90;27.97
63899;HTU21D;50070;-32.946;-60.652;2023-10-08T14:11:57;27.04;29.50
63899;HTU21D;50070;-32.946;-60.652;2023-10-08T14:14:23;27.39;29.13
63899;HTU21D;50070;-32.946;-60.652;2023-10-08T14:16:56;27.07;29.09
63899;HTU21D;50070;-32.946;-60.652;2023-10-08T14:19:29;26.82;27.80
63899;HTU21D;50070;-32.946;-60.652;2023-10-08T14:22:06;27.63;27.41
63899;HTU21D;50070;-32.946;-60.652;2023-10-08T14:24:35;28.18;26.99
63899;HTU21D;50070;-32.946;-60.652;2023-10-08T14:27:04;27.73;27.62
63899;HTU21D;50070;-32.946;-60.652;2023-10-08T14:29:36;27.88;27.33
63899;HTU21D;50070;-32.946;-60.652;2023-10-08T14:32:04;28.68;25.54
63899;HTU21D;50070;-32.946;-60.652;2023-10-08T14:34:37;28.45;26.25
63899;HTU21D;50070;-32.946;-60.652;2023-10-08T14:37:13;28.93;25.37
63899;HTU21D;50070;-32.946;-60.652;2023-10-08T14:39:58;28.33;24.49
63899;HTU21D;50070;-32.946;-60.652;2023-10-08T14:42:43;28.48;24.14
63899;HTU21D;50070;-32.946;-60.652;2023-10-08T14:45:23;28.83;23.99
63899;HTU21D;50070;-32.946;-60.652;2023-10-08T14:47:54;28.79;23.91
63899;HTU21D;50070;-32.946;-60.652;2023-10-08T14:50:23;27.83;24.73
63899;HTU21D;50070;-32.946;-60.652;2023-10-08T14:52:54;27.39;25.25
63899;HTU21D;50070;-32.946;-60.652;2023-10-08T14:55:26;28.26;23.85
63899;HTU21D;50070;-32.946;-60.652;2023-10-08T14:57:53;27.60;25.27
63899;HTU21D;50070;-32.946;-60.652;2023-10-08T15:00:21;28.60;24.01
63899;HTU21D;50070;-32.946;-60.652;2023-10-08T15:02:56;28.44;24.61
63899;HTU21D;50070;-32.946;-60.652;2023-10-08T15:05:24;28.61;25.10
63899;HTU21D;50070;-32.946;-60.652;2023-10-08T15:07:51;28.17;25.59
63899;HTU21D;50070;-32.946;-60.652;2023-10-08T15:10:19;27.93;25.85